Paddy Hill, New York
Current Conditions -  °F | °C
As of 4:56 PM on Monday 26 Jan 2015 (Local Time) from KART Reporting Station
Overcast Overcast  
Wind Chill: -5°   Ceiling: 5000
Heat Index: 12°   Visibility: 10mi
Dew Point: -1°   Wind: 17mph
Humidity: 56%   Direction: 40°NE
Pressure: 30.03"   Gusts: NA
Location:  44.0259°N, 75.9857°W
Report Text: KART 262156Z AUTO 04015KT 10SM BKN050 OVC070 M11/M18 A3003 RMK AO2 SLP181 T11111183
Loading
Personal Weather Stations






























Interactive Weather Map New forecast layout! Learn more

10-Day Weather Forecast

Advertisements
Track Severe Weather on mobile